Due to severe server failure at the provider, not all demo sites are operational. Will take some days to rebuilt everything.

Demonstration site - Click on the  for more information

This is an optional block. Switch it on/off in your settings-file: $SITE['bannerTop'] = false; or $SITE['bannerBottom'] = false;

You can display ads, any other important text or photo’s using text / html or PHP code.

You can place one or more at the top and or bottom and it can all be different for content / size .



Visit our other weather sites:

Template documentation
and downloads

And another site



Nearby METAR Reports

   
EBAW - Antwerp
Updated: 19-02-2019 14:20
Mostly Cloudy  
Mostly Cloudy  
   Wind: West 24.1 km/h
Wind: West 24.1 km/h
Temperature: 10°C
Wind Chill: 7°C
Dew Point: 3°C
Humidity: 62%
Barometer: 1020 hPa
Clouds: Mostly Cloudy
Visibility: More than 10 km
Cloud details: Mostly Cloudy 3100 ft
EBAW 191320Z 27013KT 9999 BKN031 10/03 Q1020 NOSIG
EBLG - Liège
Updated: 19-02-2019 14:20
Partly Cloudy  
Partly Cloudy  
   Wind: West 22.2 km/h
Wind: West 22.2 km/h
Temperature: 10°C
Wind Chill: 7°C
Dew Point: 2°C
Humidity: 58%
Barometer: 1020 hPa
Clouds: Partly Cloudy
Visibility: More than 10 km
Cloud details: Partly Cloudy 2800 ft
EBLG 191320Z 26012KT 9999 SCT028 10/02 Q1020 NOSIG
EBCV - Mons/Bergen
Updated: 19-02-2019 14:25
Mostly Cloudy  
Mostly Cloudy  
   Wind: West 18.5 km/h
Wind: West 18.5 km/h
Temperature: 10°C
Wind Chill: 8°C
Dew Point: 4°C
Humidity: 67%
Barometer: 1021 hPa
Clouds: Mostly Cloudy
Visibility: More than 10 km
Cloud details: Mostly Cloudy 2900 ft
EBCV 191325Z AUTO 27010KT 9999 BKN029/// 10/04 Q1021 BLU
EHBK - Maastricht
Updated: 19-02-2019 14:25
Overcast  
Overcast  
   Wind: West 16.7 km/h
Wind: West 16.7 km/h
Temperature: 10°C
Wind Chill: 8°C
Dew Point: 3°C
Humidity: 62%
Barometer: 1020 hPa
Clouds: Overcast
Visibility: More than 10 km
Cloud details: Mostly Cloudy 2900 ft,
Mostly Cloudy 3400 ft,
Overcast 3800 ft
EHBK 191325Z AUTO 27009KT 220V320 9999 BKN029 BKN034 OVC038 10/03 Q1020 NOSIG
ELLX - Luxemburg
Updated: 19-02-2019 14:20
Partly Cloudy  
Partly Cloudy  
   Wind: WSW 20.4 km/h
Wind: WSW 20.4 km/h
Temperature: 9°C
Wind Chill: 6°C
Dew Point: 3°C
Humidity: 66%
Barometer: 1021 hPa
Clouds: Partly Cloudy
Visibility: More than 10 km
Cloud details: Few Clouds 2200 ft,
Partly Cloudy 2500 ft
ELLX 191320Z 25011KT 220V280 9999 FEW022 SCT025 09/03 Q1021 NOSIG
EBOS - Oostende
Updated: 19-02-2019 14:20
Few Clouds  
Few Clouds  
   Wind: West 29.6 km/h
Wind: West 29.6 km/h
Temperature: 9°C
Wind Chill: 6°C
Dew Point: 5°C
Humidity: 76%
Barometer: 1021 hPa
Clouds: Few Clouds
Visibility: More than 10 km
Cloud details: Few Clouds 2000 ft
EBOS 191320Z 26016KT 9999 FEW020 09/05 Q1021 NOSIG

Script developed by  Saratoga-weather.org Adapted for the template by  Weerstation Leuven

This is an optional block. Switch it on/off in your settings-file: $SITE['bannerTop'] = false; or $SITE['bannerBottom'] = false;

You can display ads, any other important text or photo’s using text / html or PHP code.

You can place one or more at the top and or bottom and it can all be different for content / size .